createdAt,value
2022-09-03T00:00:33.279Z,4.80
2022-09-03T00:06:05.331Z,5.10
2022-09-03T00:11:29.059Z,5.90
2022-09-03T00:16:47.387Z,4.90
2022-09-03T00:22:05.739Z,4.30
2022-09-03T00:27:17.550Z,4.60
2022-09-03T00:32:44.250Z,4.50
2022-09-03T00:37:48.067Z,5.00
2022-09-03T00:43:35.074Z,4.50
2022-09-03T00:49:19.845Z,4.20
2022-09-03T00:54:47.036Z,4.20
2022-09-03T01:00:13.050Z,3.70
2022-09-03T01:06:09.364Z,4.60
2022-09-03T01:11:49.494Z,4.50
2022-09-03T01:17:13.431Z,4.50
2022-09-03T01:22:45.401Z,3.90
2022-09-03T01:28:33.631Z,3.40
2022-09-03T01:33:50.700Z,4.40
2022-09-03T01:39:00.019Z,5.00
2022-09-03T01:44:10.299Z,4.70
2022-09-03T01:49:42.717Z,4.90
2022-09-03T01:55:16.727Z,4.90
2022-09-03T02:00:20.875Z,4.90
2022-09-03T02:05:27.776Z,6.20
2022-09-03T02:11:02.930Z,5.40
2022-09-03T02:16:36.283Z,5.20
2022-09-03T02:21:54.875Z,5.80
2022-09-03T02:26:57.931Z,5.50
2022-09-03T02:32:00.999Z,6.10
2022-09-03T02:37:17.929Z,6.30
2022-09-03T02:42:21.075Z,5.70
2022-09-03T02:47:32.157Z,6.60
2022-09-03T02:52:35.220Z,6.80
2022-09-03T02:57:38.388Z,6.40
2022-09-03T03:02:43.446Z,6.80
2022-09-03T03:07:46.523Z,6.60
2022-09-03T03:12:49.591Z,6.80
2022-09-03T03:17:52.621Z,6.40
2022-09-03T03:22:55.640Z,7.40
2022-09-03T03:27:59.180Z,6.10
2022-09-03T03:33:02.207Z,7.10
2022-09-03T03:38:07.482Z,6.20
2022-09-03T03:43:10.515Z,6.60
2022-09-03T03:48:13.569Z,6.00
2022-09-03T03:53:16.644Z,6.80
2022-09-03T03:58:19.820Z,6.20
2022-09-03T04:03:22.947Z,6.70
2022-09-03T04:08:29.813Z,5.60
2022-09-03T04:13:38.804Z,5.60
2022-09-03T04:18:43.217Z,7.50
2022-09-03T04:23:48.874Z,10.30
2022-09-03T04:28:52.395Z,9.70
2022-09-03T04:33:55.591Z,8.80
2022-09-03T04:39:01.892Z,7.20
2022-09-03T04:44:04.990Z,5.70
2022-09-03T04:49:09.656Z,5.70
2022-09-03T04:54:12.718Z,5.50
2022-09-03T04:59:15.795Z,5.70
2022-09-03T05:04:19.890Z,7.60
2022-09-03T05:09:22.985Z,6.10
2022-09-03T05:14:25.981Z,5.90
2022-09-03T05:19:29.490Z,5.20
2022-09-03T05:29:35.479Z,5.10
2022-09-03T05:34:39.204Z,7.00
2022-09-03T05:39:42.334Z,6.60
2022-09-03T05:44:45.440Z,6.20
2022-09-03T05:49:48.522Z,21.70
2022-09-03T05:54:51.592Z,7.10
2022-09-03T05:59:54.636Z,7.10
2022-09-03T06:04:57.868Z,13.10
2022-09-03T06:10:00.965Z,16.90
2022-09-03T06:15:06.123Z,15.00
2022-09-03T06:20:10.244Z,6.20
2022-09-03T06:25:15.897Z,6.70
2022-09-03T06:30:20.884Z,6.50
2022-09-03T06:35:24.023Z,7.10
2022-09-03T06:40:27.685Z,7.40
2022-09-03T06:45:31.666Z,7.60
2022-09-03T06:50:34.932Z,7.50
2022-09-03T06:55:40.280Z,8.20
2022-09-03T07:00:44.905Z,8.20
2022-09-03T07:05:48.785Z,8.40
2022-09-03T07:10:51.858Z,9.00
2022-09-03T07:16:04.839Z,8.20
2022-09-03T07:21:12.194Z,9.30
2022-09-03T07:26:26.552Z,10.20
2022-09-03T07:31:33.735Z,10.00
2022-09-03T07:36:43.175Z,9.80
2022-09-03T07:41:47.339Z,10.20
2022-09-03T07:46:51.681Z,9.40
2022-09-03T07:51:55.256Z,10.20
2022-09-03T07:56:59.325Z,9.30
2022-09-03T08:02:02.425Z,9.40
2022-09-03T08:07:05.547Z,9.90
2022-09-03T08:12:08.733Z,8.60
2022-09-03T08:22:15.969Z,9.50
2022-09-03T08:27:26.349Z,9.30
2022-09-03T08:32:29.461Z,9.30
2022-09-03T08:37:33.335Z,8.60
2022-09-03T08:43:08.575Z,8.90
2022-09-03T08:48:23.766Z,8.20
2022-09-03T08:53:42.212Z,7.30
2022-09-03T08:58:45.397Z,7.40
2022-09-03T09:04:07.084Z,6.20
2022-09-03T09:09:15.827Z,6.10
2022-09-03T09:14:32.734Z,5.50
2022-09-03T09:20:21.656Z,5.30
2022-09-03T09:25:26.641Z,11.90
2022-09-03T09:30:32.635Z,7.30
2022-09-03T09:35:36.014Z,5.00
2022-09-03T09:40:44.755Z,4.80
2022-09-03T09:46:06.286Z,5.40
2022-09-03T09:51:38.944Z,4.80
2022-09-03T09:56:44.827Z,5.30
2022-09-03T10:01:48.007Z,5.00
2022-09-03T10:12:31.490Z,4.50
2022-09-03T10:18:10.142Z,3.80
2022-09-03T10:23:50.426Z,4.10
2022-09-03T10:29:07.320Z,4.10
2022-09-03T10:34:23.524Z,3.80
2022-09-03T10:39:32.106Z,4.20
2022-09-03T10:45:10.327Z,5.60
2022-09-03T10:51:18.199Z,4.00
2022-09-03T10:56:29.778Z,3.90
2022-09-03T11:01:57.469Z,4.10
2022-09-03T11:07:12.972Z,4.20
2022-09-03T11:12:31.966Z,4.20
2022-09-03T11:18:18.272Z,4.20
2022-09-03T11:23:24.481Z,3.70
2022-09-03T11:28:45.491Z,3.80
2022-09-03T11:33:57.111Z,3.80
2022-09-03T11:39:00.890Z,3.20
2022-09-03T11:44:20.354Z,4.10
2022-09-03T11:49:31.514Z,21.10
2022-09-03T11:54:45.880Z,5.50
2022-09-03T11:59:49.241Z,3.40
2022-09-03T12:05:06.502Z,3.20
2022-09-03T12:10:51.162Z,2.40
2022-09-03T12:16:37.775Z,2.60
2022-09-03T12:21:41.775Z,2.90
2022-09-03T12:26:45.005Z,2.40
2022-09-03T12:31:51.121Z,2.50
2022-09-03T12:36:55.695Z,2.00
2022-09-03T12:42:09.550Z,2.70
2022-09-03T12:52:46.850Z,2.30
2022-09-03T12:58:04.318Z,4.60
2022-09-03T13:03:13.227Z,3.00
2022-09-03T13:08:23.900Z,2.80
2022-09-03T13:13:32.199Z,2.50
2022-09-03T13:18:44.872Z,2.70
2022-09-03T13:24:03.430Z,2.50
2022-09-03T13:29:39.806Z,3.00
2022-09-03T13:34:57.483Z,2.60
2022-09-03T13:40:31.787Z,2.90
2022-09-03T13:45:52.510Z,2.90
2022-09-03T13:51:32.490Z,3.00
2022-09-03T13:57:09.269Z,3.70
2022-09-03T14:02:27.319Z,3.40
2022-09-03T14:07:57.446Z,4.10
2022-09-03T14:13:11.775Z,5.10
2022-09-03T14:18:52.963Z,5.70
2022-09-03T14:24:09.610Z,5.70
2022-09-03T14:29:12.560Z,5.30
2022-09-03T14:34:43.235Z,5.20
2022-09-03T14:40:03.878Z,5.70
2022-09-03T14:51:19.937Z,7.20
2022-09-03T14:56:39.070Z,6.60
2022-09-03T15:01:45.144Z,6.00
2022-09-03T15:07:06.884Z,5.70
2022-09-03T15:12:40.692Z,5.80
2022-09-03T15:18:06.875Z,8.20
2022-09-03T15:23:25.047Z,8.50
2022-09-03T15:29:05.032Z,6.20
2022-09-03T15:34:36.509Z,7.00
2022-09-03T15:39:44.567Z,6.40
2022-09-03T15:44:55.161Z,5.30
2022-09-03T15:50:03.594Z,5.50
2022-09-03T15:55:32.228Z,7.90
2022-09-03T16:01:11.527Z,8.20
2022-09-03T16:07:11.606Z,4.70
2022-09-03T16:13:04.887Z,5.00
2022-09-03T16:18:26.319Z,6.20
2022-09-03T16:23:46.932Z,5.00
2022-09-03T16:29:03.186Z,4.30
2022-09-03T16:34:19.073Z,4.60
2022-09-03T16:40:13.669Z,5.20
2022-09-03T16:46:06.965Z,5.90
2022-09-03T16:51:46.651Z,5.40
2022-09-03T16:57:19.396Z,5.80
2022-09-03T17:02:41.826Z,6.80
2022-09-03T17:07:59.255Z,15.10
2022-09-03T17:13:32.801Z,9.40
2022-09-03T17:18:59.187Z,7.40
2022-09-03T17:24:22.605Z,6.60
2022-09-03T17:29:53.867Z,5.70
2022-09-03T17:35:02.586Z,5.80
2022-09-03T17:40:49.605Z,6.40
2022-09-03T17:46:10.836Z,12.30
2022-09-03T17:51:46.559Z,21.10
2022-09-03T17:57:24.845Z,25.60
2022-09-03T18:02:45.771Z,23.40
2022-09-03T18:08:24.085Z,24.00
2022-09-03T18:13:42.423Z,16.40
2022-09-03T18:18:53.656Z,14.30
2022-09-03T18:24:35.175Z,12.30
2022-09-03T18:30:20.117Z,12.40
2022-09-03T18:35:45.738Z,12.70
2022-09-03T18:41:31.709Z,12.30
2022-09-03T18:48:02.256Z,13.20
2022-09-03T18:53:02.172Z,15.40
2022-09-03T18:58:36.391Z,13.90
2022-09-03T19:04:03.115Z,14.50
2022-09-03T19:10:04.757Z,14.80
2022-09-03T19:16:06.343Z,13.60
2022-09-03T19:21:49.610Z,13.90
2022-09-03T19:27:51.768Z,13.70
2022-09-03T19:33:30.717Z,12.90
2022-09-03T19:39:32.973Z,10.80
2022-09-03T19:45:43.070Z,11.90
2022-09-03T19:51:28.974Z,13.20
2022-09-03T19:56:50.543Z,12.30
2022-09-03T20:02:12.116Z,11.70
2022-09-03T20:07:35.221Z,11.80
2022-09-03T20:12:44.586Z,11.30
2022-09-03T20:17:53.748Z,11.30
2022-09-03T20:23:03.434Z,11.60
2022-09-03T20:28:45.616Z,11.80
2022-09-03T20:34:14.675Z,13.00
2022-09-03T20:39:36.072Z,12.10
2022-09-03T20:44:54.442Z,12.40
2022-09-03T20:50:23.211Z,12.10
2022-09-03T20:55:50.197Z,10.00
2022-09-03T21:00:58.224Z,11.10
2022-09-03T21:06:20.405Z,9.90
2022-09-03T21:11:47.434Z,10.10
2022-09-03T21:17:30.986Z,9.50
2022-09-03T21:23:25.937Z,9.30
2022-09-03T21:28:40.868Z,9.70
2022-09-03T21:33:51.510Z,9.60
2022-09-03T21:39:06.265Z,9.90
2022-09-03T21:44:20.946Z,9.60
2022-09-03T21:49:35.906Z,9.90
2022-09-03T21:54:40.353Z,10.00
2022-09-03T22:00:12.285Z,9.40
2022-09-03T22:05:18.605Z,10.10
2022-09-03T22:10:47.354Z,10.10
2022-09-03T22:15:57.835Z,9.70
2022-09-03T22:21:13.481Z,8.70
2022-09-03T22:26:36.207Z,8.10
2022-09-03T22:32:11.673Z,8.90
2022-09-03T22:37:34.867Z,8.30
2022-09-03T22:42:52.789Z,8.50
2022-09-03T22:48:26.588Z,8.20
2022-09-03T22:53:43.877Z,8.70
2022-09-03T22:59:13.181Z,8.50
2022-09-03T23:04:36.947Z,8.30
2022-09-03T23:09:44.471Z,8.10
2022-09-03T23:14:54.236Z,7.50
2022-09-03T23:20:26.720Z,7.70
2022-09-03T23:25:41.309Z,7.40
2022-09-03T23:30:44.397Z,8.00
2022-09-03T23:36:31.626Z,8.20
2022-09-03T23:42:11.294Z,7.50
2022-09-03T23:47:54.796Z,8.40
2022-09-03T23:53:09.309Z,8.10
2022-09-03T23:58:42.209Z,8.10
